Time;durP1;ratioP1;P1;durP2;ratioP2;P2;SDS_P1;SDS_P2;PMS_P1;PMS_P2;Temp;Humidity;BMP_temperature;BMP_pressure;BME280_temperature;BME280_humidity;BME280_pressure;Samples;Min_cycle;Max_cycle;Signal;HPM_P1;HPM_P2
2023/08/07 00:00:37;;;;;;;4.00;3.73;;;16.40;99.90;;;16.43;82.19;101322.16;5044441;28;20040;-65
2023/08/07 00:03:06;;;;;;;4.03;3.83;;;16.20;99.90;;;16.51;82.28;101325.56;5055007;28;20307;-65
2023/08/07 00:05:34;;;;;;;3.97;3.78;;;16.30;99.90;;;16.45;80.80;101331.03;5043002;28;20045;-65
2023/08/07 00:08:02;;;;;;;4.53;4.22;;;16.30;99.90;;;16.45;81.23;101322.13;5058806;28;20080;-65
2023/08/07 00:10:31;;;;;;;7.65;4.53;;;16.20;99.90;;;16.45;82.43;101315.00;5043614;28;20046;-66
2023/08/07 00:12:59;;;;;;;3.60;3.50;;;16.20;99.90;;;16.43;83.36;101322.16;5057966;28;20041;-66
2023/08/07 00:15:29;;;;;;;4.22;4.03;;;16.20;99.90;;;16.60;83.32;101330.72;5059894;28;20057;-65
2023/08/07 00:17:57;;;;;;;5.57;5.18;;;16.30;99.90;;;16.61;83.55;101324.44;5041657;28;20041;-66
2023/08/07 00:20:26;;;;;;;4.30;4.00;;;16.40;99.90;;;16.45;83.12;101324.78;5040983;28;20041;-67
2023/08/07 00:22:54;;;;;;;3.85;3.60;;;16.30;99.90;;;16.51;82.73;101328.22;5044814;28;20037;-66
2023/08/07 00:25:23;;;;;;;4.75;4.55;;;16.30;99.90;;;16.49;82.16;101332.72;5042336;28;20125;-66
2023/08/07 00:27:52;;;;;;;4.88;4.53;;;16.20;99.90;;;16.51;81.40;101330.03;5043612;28;20075;-66
2023/08/07 00:30:20;;;;;;;4.45;4.25;;;16.20;99.90;;;16.34;81.72;101303.63;5042758;28;20056;-66
2023/08/07 00:32:50;;;;;;;6.18;4.13;;;16.30;99.90;;;16.48;82.91;101338.06;5043038;28;20099;-65
2023/08/07 00:35:18;;;;;;;4.00;3.80;;;16.20;99.90;;;16.65;81.97;101334.16;5043505;28;20052;-65
2023/08/07 00:37:47;;;;;;;4.25;3.85;;;16.30;99.90;;;16.52;81.18;101332.66;5042063;28;20038;-65
2023/08/07 00:40:15;;;;;;;5.60;5.30;;;16.30;99.90;;;16.55;79.48;101339.75;5044386;28;20418;-66
2023/08/07 00:42:43;;;;;;;4.00;3.75;;;16.30;99.90;;;16.45;78.88;101336.38;5041154;28;20045;-66
2023/08/07 00:45:12;;;;;;;8.00;4.40;;;16.30;99.90;;;16.58;78.50;101340.56;5056713;28;20484;-66
2023/08/07 00:47:40;;;;;;;4.78;4.57;;;16.30;99.90;;;16.52;78.31;101342.47;5044421;28;20061;-66
2023/08/07 00:50:11;;;;;;;12.35;4.30;;;16.30;99.90;;;16.52;78.88;101338.00;5041411;28;20041;-66
2023/08/07 00:52:39;;;;;;;;;;;16.30;99.90;;;16.49;80.01;101338.06;5058776;28;20052;-66
2023/08/07 00:55:09;;;;;;;4.22;3.80;;;16.20;99.90;;;16.58;79.58;101343.22;5058054;28;19921;-66
2023/08/07 00:57:38;;;;;;;4.63;4.30;;;16.30;99.90;;;16.46;80.69;101340.78;5042315;28;20043;-66
2023/08/07 01:00:08;;;;;;;10.77;4.43;;;16.20;99.90;;;16.38;79.93;101340.03;5055447;28;20047;-66
2023/08/07 01:02:37;;;;;;;3.80;3.60;;;16.10;99.90;;;16.47;79.80;101341.66;5044144;28;20064;-68
2023/08/07 01:05:06;;;;;;;3.40;3.30;;;16.20;99.90;;;16.40;79.78;101354.25;5040444;28;20518;-66
2023/08/07 01:07:36;;;;;;;4.18;3.97;;;16.10;99.90;;;16.61;78.42;101345.81;5041116;28;20045;-66
2023/08/07 01:10:06;;;;;;;5.83;4.57;;;16.30;99.90;;;16.48;77.84;101349.66;5043405;28;20458;-66
2023/08/07 01:12:52;;;;;;;7.20;4.55;;;16.30;99.90;;;16.51;77.80;101352.25;5042373;28;20450;-66
2023/08/07 01:15:27;;;;;;;4.10;3.90;;;16.30;99.90;;;16.47;76.53;101353.22;5041059;28;20072;-66
2023/08/07 01:17:56;;;;;;;3.58;3.47;;;16.30;99.90;;;16.50;76.79;101355.84;5042690;28;20045;-66
2023/08/07 01:20:25;;;;;;;3.85;3.65;;;16.20;99.90;;;16.53;77.37;101354.94;5042500;28;20053;-66
2023/08/07 01:22:54;;;;;;;8.80;3.88;;;16.30;99.90;;;16.47;78.57;101352.34;5042320;28;20072;-66
2023/08/07 01:25:23;;;;;;;4.97;4.47;;;16.20;99.90;;;16.44;78.85;101333.69;5043694;28;20053;-66
2023/08/07 01:28:03;;;;;;;4.43;4.05;;;16.20;99.90;;;16.46;77.20;101358.59;5041068;28;20084;-66
2023/08/07 01:30:37;;;;;;;4.10;3.85;;;16.30;99.90;;;16.51;76.71;101359.41;5032343;28;20088;-66
2023/08/07 01:33:12;;;;;;;4.03;3.75;;;16.30;99.90;;;16.44;76.29;101350.59;5047922;28;20049;-66
2023/08/07 01:35:46;;;;;;;3.88;3.67;;;16.20;99.90;;;16.45;76.80;101356.84;5032609;28;20045;-65
2023/08/07 01:38:16;;;;;;;7.63;4.03;;;16.20;99.90;;;16.43;77.04;101356.88;5041249;28;20438;-66
2023/08/07 01:40:47;;;;;;;10.02;4.07;;;16.20;99.90;;;16.35;78.21;101350.81;5057922;28;20060;-66
2023/08/07 01:43:15;;;;;;;;;;;16.20;99.90;;;16.41;78.30;101349.78;5043221;28;20037;-66
2023/08/07 01:45:43;;;;;;;6.25;3.40;;;16.20;99.90;;;16.40;76.79;101356.91;5041681;28;19963;-66
2023/08/07 01:48:12;;;;;;;4.20;4.00;;;16.10;99.90;;;16.41;75.45;101336.44;5043375;28;20056;-65
2023/08/07 01:50:41;;;;;;;4.35;4.13;;;16.20;99.90;;;16.44;75.56;101347.06;5047587;28;20040;-65
2023/08/07 01:53:10;;;;;;;3.90;3.70;;;16.20;99.90;;;16.43;76.91;101345.31;5043968;28;20059;-65
2023/08/07 01:55:41;;;;;;;4.03;3.83;;;16.20;99.90;;;16.51;78.77;101351.41;5041065;28;20149;-65
2023/08/07 01:58:09;;;;;;;3.80;3.60;;;16.30;99.90;;;16.56;79.62;101350.41;5058661;28;20049;-66
2023/08/07 02:00:37;;;;;;;3.58;3.38;;;16.30;99.90;;;16.62;80.05;101366.28;5053575;28;20103;-65
2023/08/07 02:03:05;;;;;;;5.78;5.22;;;16.30;99.90;;;16.55;80.34;101372.66;5041960;28;20081;-66
2023/08/07 02:05:34;;;;;;;3.75;3.55;;;16.30;99.90;;;16.63;80.35;101362.69;5057364;28;20135;-65
2023/08/07 02:08:03;;;;;;;4.18;3.97;;;16.40;99.90;;;16.58;79.15;101347.69;5042669;28;20408;-67
2023/08/07 02:10:31;;;;;;;4.25;4.05;;;16.30;99.90;;;16.46;77.16;101367.47;5041706;28;20099;-66
2023/08/07 02:13:01;;;;;;;4.25;3.95;;;16.20;99.90;;;16.66;75.59;101359.09;5062376;28;20044;-66
2023/08/07 02:15:30;;;;;;;4.07;3.88;;;16.40;99.90;;;16.50;74.22;101377.22;5051071;28;20049;-66
2023/08/07 02:17:58;;;;;;;5.78;4.65;;;16.30;99.90;;;16.51;74.22;101365.63;5051005;28;20052;-66
2023/08/07 02:20:26;;;;;;;16.98;5.10;;;16.30;99.90;;;16.49;75.06;101372.78;5035306;28;20132;-65
2023/08/07 02:22:55;;;;;;;4.50;4.13;;;16.30;99.90;;;16.50;75.81;101379.00;5036288;28;20461;-65
2023/08/07 02:25:23;;;;;;;4.22;3.92;;;16.20;99.90;;;16.51;75.78;101357.59;5046058;28;20049;-66
2023/08/07 02:27:52;;;;;;;4.00;3.80;;;16.30;99.90;;;16.44;77.53;101363.97;5045192;28;20399;-65
2023/08/07 02:30:21;;;;;;;4.93;4.60;;;16.20;99.90;;;15.87;78.20;101242.38;5044987;28;20474;-66
2023/08/07 02:32:50;;;;;;;4.60;4.40;;;16.30;99.90;;;16.63;78.52;101352.00;5046170;28;20549;-66
2023/08/07 02:35:19;;;;;;;5.50;5.15;;;16.40;99.90;;;16.52;78.19;101354.03;5043876;28;20479;-65
2023/08/07 02:37:47;;;;;;;4.50;4.20;;;16.30;99.90;;;16.46;78.53;101346.13;5046537;28;20445;-65
2023/08/07 02:40:17;;;;;;;4.70;4.40;;;16.30;99.90;;;16.48;78.30;101360.34;5043216;28;20053;-66
2023/08/07 02:42:45;;;;;;;4.63;4.33;;;16.30;99.90;;;16.44;78.28;101368.41;5035227;28;20053;-66
2023/08/07 02:45:14;;;;;;;4.13;3.92;;;16.20;99.90;;;16.52;78.61;101362.06;5035037;28;20096;-65
2023/08/07 02:47:44;;;;;;;4.50;4.10;;;16.30;99.90;;;16.45;79.80;101363.06;5036093;28;20132;-66
2023/08/07 02:50:13;;;;;;;8.30;4.75;;;16.20;99.90;;;16.38;80.22;101355.19;5045248;28;20052;-65
2023/08/07 02:52:41;;;;;;;4.88;4.57;;;16.20;99.90;;;16.52;79.89;101363.84;5057123;28;20474;-66
2023/08/07 02:55:13;;;;;;;7.03;5.10;;;16.20;99.90;;;16.48;79.38;101376.38;5045799;28;20048;-66
2023/08/07 02:57:41;;;;;;;5.20;3.50;;;16.20;99.90;;;16.43;79.75;101374.69;5043124;28;20502;-66
2023/08/07 03:00:11;;;;;;;4.65;4.43;;;16.20;99.90;;;16.37;83.15;101366.78;5046863;28;20056;-66
2023/08/07 03:02:39;;;;;;;4.50;4.13;;;16.10;99.90;;;16.34;83.65;101381.06;5034598;28;20060;-66
2023/08/07 03:05:10;;;;;;;4.00;3.80;;;16.10;99.90;;;16.33;85.18;101368.66;5034792;28;20087;-66
2023/08/07 03:07:38;;;;;;;4.78;4.53;;;16.00;99.90;;;16.17;84.90;101364.50;5034596;28;20052;-66
2023/08/07 03:10:08;;;;;;;4.93;4.38;;;16.00;99.90;;;16.24;83.96;101353.69;5034590;28;20057;-65
2023/08/07 03:12:37;;;;;;;7.57;5.03;;;16.10;99.90;;;16.27;83.99;101377.66;5042573;28;20375;-66
2023/08/07 03:15:07;;;;;;;4.93;4.05;;;16.10;99.90;;;16.43;82.54;101380.91;5060727;28;20048;-66
2023/08/07 03:17:36;;;;;;;4.28;4.07;;;16.20;99.90;;;16.60;85.27;101399.28;5043202;28;20068;-66
2023/08/07 03:20:06;;;;;;;5.63;3.55;;;16.40;99.90;;;16.40;89.91;101386.28;5057879;28;20053;-66
2023/08/07 03:22:37;;;;;;;3.65;3.53;;;16.30;99.90;;;16.39;91.68;101392.56;5034605;28;20084;-66
2023/08/07 03:25:06;;;;;;;8.85;4.20;;;16.20;99.90;;;16.31;91.79;101394.50;5043942;28;20045;-66
2023/08/07 03:27:35;;;;;;;4.03;3.77;;;16.20;99.90;;;15.87;93.43;101394.44;5066365;28;20076;-66
2023/08/07 03:30:05;;;;;;;4.15;3.63;;;15.80;99.90;;;15.73;96.31;101383.13;5035999;28;20122;-66
2023/08/07 03:32:33;;;;;;;3.35;3.25;;;15.60;99.90;;;15.49;96.96;101387.06;5043388;28;20064;-66
2023/08/07 03:35:01;;;;;;;3.88;3.58;;;15.30;99.90;;;15.66;96.48;101389.47;5060201;28;20037;-66
2023/08/07 03:37:30;;;;;;;4.65;4.35;;;15.40;99.90;;;15.30;96.18;101367.81;5049536;28;20380;-66
2023/08/07 03:40:00;;;;;;;20.42;4.35;;;15.20;99.90;;;15.34;97.47;101379.28;5045510;28;20098;-66
2023/08/07 03:42:29;;;;;;;;;;;15.10;99.90;;;15.24;97.89;101372.34;5041706;28;20441;-66
2023/08/07 03:44:58;;;;;;;4.38;4.18;;;15.10;99.90;;;15.22;98.37;101377.69;5060311;28;19924;-66
2023/08/07 03:47:26;;;;;;;3.92;3.72;;;15.00;99.90;;;15.36;99.02;101373.03;5043113;28;20052;-66
2023/08/07 03:49:55;;;;;;;3.42;3.33;;;15.10;99.90;;;15.27;99.59;101370.50;5059528;28;20115;-66
2023/08/07 03:52:24;;;;;;;28.63;4.57;;;15.10;99.90;;;15.50;99.53;101372.84;5059124;28;20140;-66
2023/08/07 03:54:52;;;;;;;4.35;4.05;;;15.20;99.90;;;15.52;99.39;101370.16;5050057;28;20056;-66
2023/08/07 03:57:22;;;;;;;3.90;3.70;;;15.30;99.90;;;15.64;99.18;101370.81;5044611;28;20048;-66
2023/08/07 03:59:51;;;;;;;4.28;4.07;;;15.40;99.90;;;15.57;98.41;101369.16;5057618;28;20494;-66
2023/08/07 04:02:19;;;;;;;3.85;3.50;;;15.40;99.90;;;15.67;97.86;101370.78;5045127;28;20513;-66
2023/08/07 04:04:48;;;;;;;4.20;3.95;;;15.50;99.90;;;15.63;98.28;101369.06;5032296;28;20088;-66
2023/08/07 04:07:16;;;;;;;4.28;3.85;;;15.40;99.90;;;15.70;98.88;101369.84;5033846;28;20045;-66
2023/08/07 04:09:44;;;;;;;3.65;3.47;;;15.50;99.90;;;15.64;98.71;101368.16;5043307;28;20517;-66
2023/08/07 04:12:13;;;;;;;3.55;3.45;;;15.40;99.90;;;15.90;97.41;101378.38;5033426;28;20104;-66
2023/08/07 04:14:43;;;;;;;4.43;4.13;;;15.60;99.90;;;15.77;96.29;101377.72;5040340;28;20049;-66
2023/08/07 04:17:11;;;;;;;3.75;3.55;;;15.50;99.90;;;15.87;94.50;101381.97;5043950;28;20460;-66
2023/08/07 04:19:40;;;;;;;5.32;3.60;;;15.60;99.90;;;15.89;92.82;101381.97;5058040;28;20088;-66
2023/08/07 04:22:08;;;;;;;4.20;4.00;;;15.70;99.90;;;15.90;91.60;101375.69;5055822;28;20057;-66
2023/08/07 04:24:36;;;;;;;6.20;4.43;;;15.70;99.90;;;15.82;90.59;101390.97;5044654;28;20048;-66
2023/08/07 04:27:06;;;;;;;4.50;3.90;;;15.70;99.90;;;15.91;88.65;101389.00;5048539;28;20053;-66
2023/08/07 04:29:34;;;;;;;4.05;3.75;;;15.60;99.90;;;15.91;87.37;101381.00;5032988;28;20434;-67
2023/08/07 04:32:06;;;;;;;3.88;3.60;;;15.70;99.90;;;15.93;86.71;101389.00;5032821;28;20064;-66
2023/08/07 04:34:35;;;;;;;5.20;4.78;;;15.70;99.90;;;16.04;85.60;101390.56;5032769;28;20060;-66
2023/08/07 04:37:05;;;;;;;3.95;3.75;;;15.80;99.90;;;15.95;85.41;101389.84;5038997;28;20117;-66
2023/08/07 04:39:33;;;;;;;8.68;4.63;;;15.70;99.90;;;16.09;84.72;101403.81;5042232;28;20402;-66
2023/08/07 04:42:01;;;;;;;3.63;3.47;;;15.80;99.90;;;16.20;83.92;101401.84;5043872;28;20106;-67
2023/08/07 04:44:30;;;;;;;3.38;3.28;;;15.90;99.90;;;16.27;83.14;101411.47;5041520;28;20441;-67
2023/08/07 04:46:58;;;;;;;4.28;3.97;;;16.00;99.90;;;16.32;81.67;101403.41;5044186;28;20048;-66
2023/08/07 04:49:28;;;;;;;3.53;3.42;;;16.10;99.90;;;16.31;80.86;101407.84;5040925;28;20079;-66
2023/08/07 04:51:56;;;;;;;3.73;3.53;;;16.10;99.90;;;16.33;80.58;101411.38;5032572;28;20049;-66
2023/08/07 04:54:26;;;;;;;3.50;3.40;;;16.10;99.90;;;16.42;79.61;101404.94;5039535;28;20796;-65
2023/08/07 04:56:54;;;;;;;3.55;3.45;;;16.20;99.90;;;16.33;79.89;101408.69;5032864;28;20049;-66
2023/08/07 04:59:23;;;;;;;7.45;4.18;;;16.10;99.90;;;16.34;80.00;101412.25;5032579;28;20050;-66
2023/08/07 05:01:51;;;;;;;3.83;3.63;;;16.10;99.90;;;16.32;80.40;101420.28;5041057;28;20535;-66
2023/08/07 05:04:19;;;;;;;3.75;3.55;;;16.10;99.90;;;16.40;79.97;101421.00;5042971;28;20077;-66
2023/08/07 05:06:49;;;;;;;11.80;4.55;;;16.20;99.90;;;16.39;80.28;101421.94;5041609;28;20053;-66
2023/08/07 05:09:17;;;;;;;4.40;3.97;;;16.10;99.90;;;16.24;80.06;101401.72;5043835;28;20130;-67
2023/08/07 05:11:46;;;;;;;5.57;3.72;;;16.00;99.90;;;16.26;80.60;101423.06;5040789;28;20462;-66
2023/08/07 05:14:14;;;;;;;4.40;4.20;;;16.00;99.90;;;16.24;79.50;101425.75;5032615;28;20141;-66
2023/08/07 05:16:42;;;;;;;3.85;3.65;;;16.00;99.90;;;16.22;78.79;101422.22;5032403;28;20490;-66
2023/08/07 05:19:11;;;;;;;5.50;5.07;;;16.00;99.90;;;16.22;78.33;101429.34;5032381;28;20041;-65
2023/08/07 05:21:39;;;;;;;3.85;3.65;;;16.00;99.90;;;16.20;78.80;101425.88;5033639;28;20057;-66
2023/08/07 05:24:09;;;;;;;6.43;4.82;;;16.00;99.90;;;16.40;78.24;101434.34;5042581;28;20112;-65
2023/08/07 05:26:37;;;;;;;4.93;4.53;;;16.10;99.90;;;16.39;79.15;101429.06;5042821;28;20045;-65
2023/08/07 05:29:06;;;;;;;5.60;4.63;;;16.10;99.90;;;16.30;79.44;101432.75;5041657;28;20084;-66
2023/08/07 05:31:36;;;;;;;4.05;3.85;;;16.10;99.90;;;16.34;80.48;101426.47;5043181;28;20045;-67
2023/08/07 05:34:04;;;;;;;9.40;3.80;;;16.10;99.90;;;16.39;80.67;101431.72;5040518;28;20494;-67
2023/08/07 05:36:33;;;;;;;4.25;4.05;;;16.10;99.90;;;16.35;81.04;101430.03;5043090;28;20180;-67
2023/08/07 05:39:01;;;;;;;3.78;3.58;;;16.10;99.90;;;16.21;81.57;101430.28;5040163;28;20115;-66
2023/08/07 05:41:31;;;;;;;3.60;3.40;;;16.00;99.90;;;16.44;81.17;101425.38;5043010;28;20045;-67
2023/08/07 05:43:59;;;;;;;3.73;3.60;;;16.20;99.90;;;16.44;81.01;101433.38;5040531;28;20096;-67
2023/08/07 05:46:28;;;;;;;4.75;4.35;;;16.20;99.90;;;16.45;81.05;101435.16;5044231;28;20078;-67
2023/08/07 05:48:56;;;;;;;8.20;4.28;;;16.20;99.90;;;16.42;81.16;101442.34;5045209;28;20049;-67
2023/08/07 05:51:25;;;;;;;3.50;3.40;;;16.20;99.90;;;16.59;81.79;101450.97;5044867;28;20049;-67
2023/08/07 05:53:53;;;;;;;3.25;3.15;;;16.30;99.90;;;16.54;82.00;101453.72;5058188;28;20051;-67
2023/08/07 05:56:22;;;;;;;7.97;5.90;;;16.30;99.90;;;16.59;81.92;101446.47;5046229;28;20383;-67
2023/08/07 05:58:51;;;;;;;6.85;4.80;;;16.40;99.90;;;16.64;80.67;101459.75;5043586;28;20168;-67
2023/08/07 06:01:20;;;;;;;9.97;3.93;;;16.40;99.90;;;16.69;80.70;101468.53;5035365;28;20056;-67
2023/08/07 06:03:48;;;;;;;3.88;3.67;;;16.40;99.90;;;16.58;79.69;101458.09;5035064;28;20107;-67
2023/08/07 06:06:17;;;;;;;3.78;3.58;;;16.40;99.90;;;16.65;79.63;101461.50;5035012;28;20048;-68
2023/08/07 06:08:46;;;;;;;4.40;4.20;;;16.40;99.90;;;16.80;79.81;101466.56;5036248;28;20080;-67
2023/08/07 06:11:14;;;;;;;3.38;3.28;;;16.50;99.90;;;16.93;79.54;101457.38;5045266;28;20095;-67
2023/08/07 06:13:43;;;;;;;3.92;3.72;;;16.60;99.90;;;17.05;78.78;101474.00;5045331;28;20049;-67
2023/08/07 06:16:13;;;;;;;4.00;3.78;;;16.80;99.90;;;17.01;78.34;101474.13;5045030;28;20052;-67
2023/08/07 06:18:41;;;;;;;7.00;4.45;;;16.70;99.90;;;16.97;77.83;101469.75;5046222;28;20051;-67
2023/08/07 06:21:10;;;;;;;4.90;4.57;;;16.80;99.90;;;17.22;77.80;101464.75;5043276;28;20049;-67
2023/08/07 06:23:39;;;;;;;5.70;4.32;;;16.90;99.90;;;17.09;76.96;101473.03;5047033;28;20155;-67
2023/08/07 06:26:08;;;;;;;4.95;4.65;;;16.90;99.90;;;17.19;77.47;101472.84;5034704;28;20042;-67
2023/08/07 06:28:37;;;;;;;3.75;3.55;;;16.90;99.90;;;17.14;76.93;101464.94;5034990;28;20487;-67
2023/08/07 06:31:08;;;;;;;3.67;3.55;;;16.90;99.90;;;17.07;76.54;101477.53;5034754;28;20041;-67
2023/08/07 06:33:38;;;;;;;6.82;4.30;;;16.90;99.90;;;16.89;76.64;101480.59;5036926;28;20034;-69
2023/08/07 06:36:09;;;;;;;4.15;3.45;;;16.70;99.90;;;16.74;76.51;101430.13;5044402;28;20127;-69
2023/08/07 06:38:37;;;;;;;4.03;3.83;;;16.70;99.90;;;17.03;76.39;101473.16;5045986;28;20052;-74
2023/08/07 06:41:06;;;;;;;7.13;3.88;;;16.80;99.90;;;16.87;75.80;101474.41;5043296;28;20050;-71
2023/08/07 06:43:34;;;;;;;4.03;3.83;;;16.70;99.90;;;16.84;75.46;101465.59;5050475;28;20060;-67
2023/08/07 06:46:03;;;;;;;4.35;3.88;;;16.60;99.90;;;17.15;75.05;101475.56;5034987;28;20049;-67
2023/08/07 06:48:31;;;;;;;4.25;3.95;;;16.80;99.90;;;17.23;74.92;101498.63;5034680;28;20050;-68
2023/08/07 06:51:01;;;;;;;4.07;3.88;;;16.90;99.90;;;17.14;74.44;101467.59;5038780;28;20086;-67
2023/08/07 06:53:30;;;;;;;8.25;3.88;;;17.00;99.90;;;17.34;74.11;101501.94;5044258;28;20535;-67
2023/08/07 06:55:58;;;;;;;5.82;3.75;;;17.10;99.90;;;17.44;73.50;101498.16;5059184;28;20107;-66
2023/08/07 06:58:27;;;;;;;3.80;3.60;;;17.20;99.90;;;17.51;73.13;101495.31;5044677;28;20057;-67
2023/08/07 07:00:55;;;;;;;6.70;4.68;;;17.20;99.90;;;17.45;73.40;101491.88;5058800;28;20057;-67
2023/08/07 07:03:24;;;;;;;4.30;4.10;;;17.30;99.90;;;17.38;73.74;101498.28;5045539;28;20103;-67
2023/08/07 07:05:52;;;;;;;4.05;3.85;;;17.20;99.90;;;17.67;72.88;101501.22;5049673;28;20055;-67
2023/08/07 07:08:23;;;;;;;4.10;3.88;;;17.30;99.90;;;17.79;71.86;101493.75;5042180;28;20053;-67
2023/08/07 07:10:51;;;;;;;4.60;4.25;;;17.50;99.90;;;17.62;71.49;101497.75;5060854;28;20110;-67
2023/08/07 07:13:20;;;;;;;6.25;5.68;;;17.40;99.90;;;17.30;71.45;101486.88;5042787;28;20045;-68
2023/08/07 07:15:54;;;;;;;3.47;3.38;;;17.10;99.90;;;17.17;71.89;101497.81;5044357;28;20132;-67
2023/08/07 07:18:23;;;;;;;4.22;3.83;;;16.90;99.90;;;16.89;72.20;101467.25;5044470;28;20581;-66
2023/08/07 07:20:58;;;;;;;4.50;3.70;;;16.80;99.90;;;17.24;72.41;101514.63;5042833;28;20048;-66
2023/08/07 07:23:29;;;;;;;9.10;5.35;;;16.90;99.90;;;17.35;73.02;101509.91;5034239;28;20049;-66
2023/08/07 07:25:58;;;;;;;4.57;4.22;;;17.10;99.90;;;17.53;71.35;101508.66;5033861;28;20437;-67
2023/08/07 07:28:26;;;;;;;4.75;3.83;;;17.20;99.90;;;17.54;70.31;101480.97;5033814;28;20045;-66
2023/08/07 07:30:54;;;;;;;4.50;4.10;;;17.40;99.90;;;16.93;69.42;101390.56;5051278;28;20045;-66
2023/08/07 07:33:23;;;;;;;4.25;4.05;;;17.40;99.90;;;17.84;69.12;101515.06;5043488;28;20037;-66
2023/08/07 07:35:51;;;;;;;3.42;3.33;;;17.60;99.90;;;17.83;69.59;101524.88;5044465;28;20049;-67
2023/08/07 07:38:19;;;;;;;3.65;3.45;;;17.60;99.90;;;18.17;68.43;101514.25;5042623;28;20072;-67
2023/08/07 07:40:50;;;;;;;11.25;4.55;;;17.90;99.90;;;18.12;65.05;101515.28;5045217;28;20159;-69
2023/08/07 07:43:21;;;;;;;3.72;3.53;;;17.90;99.90;;;18.15;65.39;101525.91;5033633;28;20430;-67
2023/08/07 07:45:50;;;;;;;3.63;3.50;;;17.90;99.90;;;18.16;66.93;101522.28;5043406;28;20422;-68
2023/08/07 07:48:18;;;;;;;4.00;3.80;;;17.90;99.90;;;18.29;67.50;101523.75;5033668;28;20049;-68
2023/08/07 07:50:47;;;;;;;3.17;3.08;;;18.00;99.90;;;18.28;66.31;101538.94;5033115;28;20127;-68
2023/08/07 07:53:16;;;;;;;7.72;4.35;;;18.10;99.90;;;18.24;65.55;101525.66;5041369;28;20191;-68
2023/08/07 07:55:50;;;;;;;4.93;4.00;;;18.00;99.90;;;18.19;64.53;101539.19;5043275;28;20472;-68
2023/08/07 07:58:20;;;;;;;3.28;3.05;;;17.90;99.90;;;18.23;64.17;101543.56;5041246;28;20038;-69
2023/08/07 08:00:49;;;;;;;4.80;4.35;;;18.00;99.90;;;18.19;65.47;101527.59;5048174;28;20041;-69
2023/08/07 08:03:18;;;;;;;3.88;3.65;;;17.90;99.90;;;18.33;66.61;101534.34;5033027;28;20133;-69
2023/08/07 08:05:50;;;;;;;3.60;3.40;;;18.00;99.90;;;18.26;64.02;101545.25;5064942;28;20052;-69
2023/08/07 08:08:18;;;;;;;6.72;3.88;;;18.00;99.90;;;17.95;63.21;101553.16;5034002;28;20383;-69
2023/08/07 08:10:51;;;;;;;3.70;3.50;;;17.80;99.90;;;17.90;61.86;101545.22;5042836;28;20072;-69
2023/08/07 08:13:20;;;;;;;3.30;3.10;;;17.70;99.90;;;18.09;62.73;101551.03;5044561;28;20037;-68
2023/08/07 08:15:49;;;;;;;3.92;3.75;;;17.80;99.90;;;18.21;64.35;101563.25;5041084;28;20046;-68
2023/08/07 08:18:17;;;;;;;8.73;3.63;;;17.90;99.90;;;18.29;63.11;101564.81;5041049;28;20047;-67
2023/08/07 08:20:45;;;;;;;4.43;4.00;;;18.00;99.90;;;18.35;62.97;101548.59;5044081;28;20048;-68
2023/08/07 08:23:14;;;;;;;4.10;3.90;;;18.10;99.90;;;18.59;62.12;101572.13;5053313;28;20053;-67
2023/08/07 08:25:42;;;;;;;3.63;3.33;;;18.30;99.90;;;18.69;63.37;101567.38;5041885;28;20124;-67
2023/08/07 08:28:12;;;;;;;3.80;3.60;;;18.40;99.90;;;18.70;62.46;101556.63;5042756;28;20056;-67
2023/08/07 08:30:40;;;;;;;6.07;3.47;;;18.60;99.90;;;18.86;61.76;101576.75;5042568;28;20136;-66
2023/08/07 08:33:12;;;;;;;4.35;3.50;;;18.60;99.90;;;18.68;62.73;101574.53;5041759;28;20048;-67
2023/08/07 08:35:40;;;;;;;3.60;3.47;;;18.50;99.90;;;18.54;63.50;101582.06;5043580;28;20044;-69
2023/08/07 08:38:09;;;;;;;3.45;3.25;;;18.30;99.90;;;18.61;64.09;101581.00;5040547;28;20054;-67
2023/08/07 08:40:40;;;;;;;3.45;3.25;;;18.30;99.90;;;18.53;62.80;101588.34;5031060;28;20038;-67
2023/08/07 08:43:12;;;;;;;3.50;3.30;;;18.30;99.90;;;18.28;61.84;101587.16;5047929;28;20061;-68
2023/08/07 08:45:44;;;;;;;3.85;3.65;;;18.10;99.90;;;18.26;59.80;101594.34;5032380;28;20053;-68
2023/08/07 08:48:21;;;;;;;3.55;3.35;;;18.00;99.90;;;18.47;60.84;101599.22;5035030;28;20506;-68
2023/08/07 08:50:51;;;;;;;3.70;3.50;;;18.20;99.90;;;18.59;61.34;101604.28;5043959;28;20045;-67
2023/08/07 08:53:22;;;;;;;4.85;4.47;;;18.30;99.90;;;18.34;61.85;101619.16;5040742;28;20524;-67
2023/08/07 08:55:52;;;;;;;4.22;3.95;;;18.20;99.90;;;18.80;61.04;101608.19;5042750;28;20049;-67
2023/08/07 08:58:24;;;;;;;3.92;3.72;;;18.50;99.90;;;18.98;60.33;101610.38;5041988;28;20053;-66
2023/08/07 09:00:53;;;;;;;3.70;3.55;;;18.80;99.90;;;19.07;58.41;101604.75;5041041;28;20112;-67
2023/08/07 09:03:22;;;;;;;3.47;3.38;;;18.90;99.90;;;18.89;59.83;101611.50;5043318;28;20127;-68
2023/08/07 09:05:53;;;;;;;4.72;4.35;;;18.70;99.90;;;19.01;59.97;101606.75;5040050;28;20530;-67
2023/08/07 09:08:24;;;;;;;3.78;3.58;;;18.70;99.90;;;19.13;59.83;101619.81;5040998;28;20049;-67
2023/08/07 09:10:53;;;;;;;3.83;3.63;;;18.90;99.90;;;19.16;60.17;101612.56;5042592;28;20051;-70
2023/08/07 09:13:25;;;;;;;4.10;3.90;;;18.90;99.90;;;19.08;59.71;101611.91;5041918;28;20063;-68
2023/08/07 09:15:56;;;;;;;3.67;3.47;;;18.90;99.90;;;18.73;58.77;101618.22;5041028;28;20052;-68
2023/08/07 09:18:25;;;;;;;3.92;3.72;;;18.60;99.90;;;18.92;60.32;101619.47;5043272;28;20053;-69
2023/08/07 09:20:54;;;;;;;8.40;4.07;;;18.60;99.90;;;19.02;58.79;101614.75;5043539;28;20041;-68
2023/08/07 09:23:22;;;;;;;3.25;3.15;;;18.80;99.90;;;19.08;59.33;101619.06;5035871;28;20049;-63
2023/08/07 09:26:00;;;;;;;3.75;3.55;;;18.80;99.90;;;19.30;59.81;101626.47;5035929;28;20041;-64
2023/08/07 09:28:32;;;;;;;9.95;3.92;;;19.00;99.90;;;19.47;60.04;101623.34;5035990;28;20050;-64
2023/08/07 09:31:01;;;;;;;5.50;3.80;;;19.20;99.90;;;19.42;59.49;101615.41;5054403;28;20044;-62
2023/08/07 09:33:31;;;;;;;3.92;3.72;;;19.30;99.90;;;19.45;60.27;101625.19;5044444;28;20552;-62
2023/08/07 09:36:01;;;;;;;3.33;3.22;;;19.20;99.90;;;19.70;60.45;101627.09;5059597;28;20069;-63
2023/08/07 09:38:32;;;;;;;3.45;3.28;;;19.40;99.90;;;19.79;59.50;101625.94;5046839;28;20041;-62
2023/08/07 09:41:03;;;;;;;4.53;4.22;;;19.60;99.90;;;19.56;59.84;101628.44;5045198;28;20080;-62
2023/08/07 09:43:37;;;;;;;3.60;3.40;;;19.50;99.90;;;19.53;60.76;101633.91;5045359;28;20107;-63
2023/08/07 09:46:07;;;;;;;4.57;3.92;;;19.30;99.90;;;19.76;59.03;101644.84;5047155;28;20091;-63
2023/08/07 09:48:42;;;;;;;3.47;3.38;;;19.50;99.90;;;19.67;58.40;101639.72;5043946;28;20064;-65
2023/08/07 09:51:11;;;;;;;3.30;3.20;;;19.40;99.90;;;19.71;56.92;101647.66;5035568;28;20376;-63
2023/08/07 09:53:40;;;;;;;3.90;3.60;;;19.50;99.90;;;19.82;57.81;101644.69;5035415;28;20410;-62
2023/08/07 09:56:08;;;;;;;2.95;2.85;;;19.60;99.90;;;19.70;58.34;101639.66;5035456;28;20461;-62
2023/08/07 09:58:38;;;;;;;3.50;3.40;;;19.50;99.90;;;18.98;59.32;101563.91;5053447;28;20053;-66
2023/08/07 10:01:09;;;;;;;5.60;5.07;;;19.30;99.90;;;19.40;59.07;101638.72;5044756;28;20045;-64
2023/08/07 10:03:38;;;;;;;3.75;3.55;;;19.20;99.90;;;19.68;60.22;101650.44;5046997;28;20288;-63
2023/08/07 10:06:08;;;;;;;7.55;3.83;;;19.40;99.90;;;19.63;58.18;101657.75;5035358;28;20419;-62
2023/08/07 10:08:37;;;;;;;7.97;4.57;;;19.50;99.90;;;19.61;58.00;101645.28;5035206;28;20045;-67
2023/08/07 10:11:08;;;;;;;3.85;3.65;;;19.40;99.90;;;19.82;58.11;101657.22;5050611;28;20047;-61
2023/08/07 10:13:39;;;;;;;7.78;4.05;;;19.60;99.90;;;19.85;58.42;101652.63;5041081;28;20037;-62
2023/08/07 10:16:08;;;;;;;4.40;4.20;;;19.70;99.90;;;19.90;58.23;101639.94;5044326;28;20045;-62
2023/08/07 10:18:37;;;;;;;7.18;3.65;;;19.80;99.90;;;19.96;57.69;101657.66;5046254;28;20124;-68
2023/08/07 10:21:07;;;;;;;8.38;3.50;;;19.80;99.90;;;19.82;57.94;101652.72;5043280;28;20458;-65